Main page
METAR-TAF:

METAR-TAF

Airports :

Wick, Scotland

Wick Airport

latitude: 58-27N, longitude: 003-05W, elevation: 39 m

Current weather observation

The report was made 28 minutes ago, at 08:20 UTC
Wind 8 kt from the West
Temperature 12°C
Humidity 82%
Pressure 1013 hPa
Visibility 10 km or more
Few clouds at a height of 2200 ft

METAR: EGPC 230820Z 27008KT 9999 FEW022 12/09 Q1013

Time: 09:48 (08:48 UTC)

Forecast

The report was made 45 minutes ago, at 08:03 UTC
Forecast valid from 23 at 09 UTC to 23 at 18 UTC
Wind 8 kt from the West
Visibility 10 km or more
Few clouds at a height of 2500 ft

TAF: EGPC 230803Z 2309/2318 26008KT 9999 FEW025

Weather observations and forecasts of more than 4000 airports (METAR and TAF reports).

The available stations are represented by yellow and red dots on the map.

Hover mouse over dot to see the name of the station.

Then click to see weather observations and forecasts.

To change the map : click on the green buttons with a black cross to zoom in, on the green button with a dash to zoom out, or on the green arrows for adjacent maps.


METAR-TAF: